createdAt,value
2022-11-07T00:00:59.008Z,2.61
2022-11-07T00:01:59.115Z,2.89
2022-11-07T00:02:59.129Z,2.72
2022-11-07T00:03:59.048Z,3
2022-11-07T00:04:59.019Z,2.89
2022-11-07T00:05:59.038Z,3.17
2022-11-07T00:06:59.023Z,2.72
2022-11-07T00:07:59.020Z,2.89
2022-11-07T00:08:59.030Z,2.72
2022-11-07T00:09:59.024Z,2.72
2022-11-07T00:10:59.018Z,3
2022-11-07T00:11:59.018Z,3
2022-11-07T00:12:59.020Z,3
2022-11-07T00:13:59.017Z,2.89
2022-11-07T00:14:59.026Z,2.72
2022-11-07T00:15:59.030Z,3
2022-11-07T00:16:59.021Z,3
2022-11-07T00:17:59.029Z,3
2022-11-07T00:18:59.040Z,3.17
2022-11-07T00:19:59.055Z,3
2022-11-07T00:20:59.035Z,3
2022-11-07T00:21:59.044Z,3.17
2022-11-07T00:22:59.034Z,3
2022-11-07T00:23:59.040Z,2.72
2022-11-07T00:24:59.040Z,2.72
2022-11-07T00:25:59.032Z,3
2022-11-07T00:26:59.077Z,3
2022-11-07T00:27:59.038Z,2.72
2022-11-07T00:28:59.044Z,3
2022-11-07T00:29:59.041Z,3
2022-11-07T00:30:59.047Z,3.33
2022-11-07T00:31:59.042Z,3.17
2022-11-07T00:33:00.246Z,3.17
2022-11-07T00:33:59.057Z,3
2022-11-07T00:34:59.049Z,3.17
2022-11-07T00:35:59.080Z,2.61
2022-11-07T00:36:59.058Z,3
2022-11-07T00:37:59.069Z,3.17
2022-11-07T00:38:59.062Z,3.33
2022-11-07T00:39:59.060Z,3
2022-11-07T00:40:59.064Z,3.17
2022-11-07T00:41:59.070Z,3.17
2022-11-07T00:42:59.065Z,2.89
2022-11-07T00:43:59.056Z,3.17
2022-11-07T00:44:59.070Z,3.33
2022-11-07T00:45:59.072Z,3
2022-11-07T00:46:59.072Z,3.17
2022-11-07T00:47:59.072Z,3.33
2022-11-07T00:48:59.069Z,3
2022-11-07T00:49:59.076Z,3
2022-11-07T00:50:59.075Z,3
2022-11-07T00:51:59.177Z,2.89
2022-11-07T00:52:59.071Z,3.44
2022-11-07T00:53:59.082Z,3.17
2022-11-07T00:54:59.081Z,3
2022-11-07T00:55:59.085Z,3.17
2022-11-07T00:56:59.083Z,3
2022-11-07T00:57:59.086Z,3
2022-11-07T00:58:59.089Z,3
2022-11-07T00:59:59.089Z,3.17
2022-11-07T01:00:59.090Z,2.72
2022-11-07T01:01:59.243Z,3
2022-11-07T01:02:59.260Z,3.17
2022-11-07T01:03:59.098Z,2.89
2022-11-07T01:04:59.091Z,3.33
2022-11-07T01:05:59.096Z,3.33
2022-11-07T01:06:59.087Z,2.72
2022-11-07T01:07:59.120Z,3.33
2022-11-07T01:08:59.096Z,3.33
2022-11-07T01:09:59.102Z,3.33
2022-11-07T01:10:59.099Z,3.17
2022-11-07T01:11:59.102Z,3.17
2022-11-07T01:12:59.099Z,3.17
2022-11-07T01:13:59.105Z,3.17
2022-11-07T01:14:59.100Z,3.33
2022-11-07T01:15:59.105Z,3.33
2022-11-07T01:16:59.095Z,3.33
2022-11-07T01:17:59.104Z,3
2022-11-07T01:18:59.110Z,3.33
2022-11-07T01:19:59.110Z,3.44
2022-11-07T01:20:59.109Z,3.44
2022-11-07T01:21:59.106Z,3.44
2022-11-07T01:22:59.110Z,3.44
2022-11-07T01:23:59.136Z,3
2022-11-07T01:24:59.115Z,3.44
2022-11-07T01:25:59.104Z,3.33
2022-11-07T01:26:59.111Z,3
2022-11-07T01:27:59.117Z,3
2022-11-07T01:28:59.120Z,2.89
2022-11-07T01:29:59.111Z,2.72
2022-11-07T01:30:59.118Z,3.17
2022-11-07T01:31:59.113Z,2.72
2022-11-07T01:32:59.121Z,3.17
2022-11-07T01:33:59.128Z,3
2022-11-07T01:34:59.117Z,2.89
2022-11-07T01:36:02.350Z,3
2022-11-07T01:36:59.128Z,3.33
2022-11-07T01:37:59.121Z,3.5
2022-11-07T01:38:59.128Z,3.17
2022-11-07T01:39:59.145Z,3.17
2022-11-07T01:40:59.137Z,3.44
2022-11-07T01:41:59.141Z,3.33
2022-11-07T01:42:59.128Z,3.33
2022-11-07T01:43:59.131Z,3.44
2022-11-07T01:44:59.134Z,3.44
2022-11-07T01:45:59.136Z,3.17
2022-11-07T01:46:59.146Z,3.33
2022-11-07T01:47:59.142Z,3.33
2022-11-07T01:48:59.147Z,3.33
2022-11-07T01:49:59.132Z,3.33
2022-11-07T01:50:59.134Z,3.17
2022-11-07T01:51:59.141Z,3
2022-11-07T01:52:59.134Z,3.33
2022-11-07T01:53:59.148Z,3.33
2022-11-07T01:54:59.139Z,3.33
2022-11-07T01:55:59.257Z,3.17
2022-11-07T01:56:59.141Z,3.44
2022-11-07T01:57:59.145Z,3.44
2022-11-07T01:58:59.150Z,3.33
2022-11-07T01:59:59.144Z,3.33
2022-11-07T02:00:59.144Z,3.44
2022-11-07T02:01:59.316Z,3.33
2022-11-07T02:02:59.319Z,3.33
2022-11-07T02:03:59.157Z,3.44
2022-11-07T02:04:59.153Z,3.44
2022-11-07T02:05:59.181Z,3.44
2022-11-07T02:06:59.150Z,3.44
2022-11-07T02:07:59.153Z,3.44
2022-11-07T02:08:59.152Z,3.33
2022-11-07T02:09:59.166Z,3.72
2022-11-07T02:10:59.158Z,3.44
2022-11-07T02:11:59.180Z,3.44
2022-11-07T02:12:59.158Z,3.44
2022-11-07T02:13:59.160Z,3.72
2022-11-07T02:14:59.161Z,3.33
2022-11-07T02:15:59.159Z,3.44
2022-11-07T02:16:59.155Z,3.33
2022-11-07T02:17:59.154Z,3.33
2022-11-07T02:18:59.158Z,3.44
2022-11-07T02:19:59.156Z,3.44
2022-11-07T02:20:59.177Z,3.44
2022-11-07T02:21:59.159Z,3.44
2022-11-07T02:22:59.165Z,3.33
2022-11-07T02:23:59.170Z,3.44
2022-11-07T02:24:59.154Z,3.72
2022-11-07T02:25:59.160Z,3.56
2022-11-07T02:26:59.165Z,3.83
2022-11-07T02:27:59.185Z,3.56
2022-11-07T02:28:59.183Z,3.44
2022-11-07T02:29:59.168Z,3.56
2022-11-07T02:30:59.166Z,3.72
2022-11-07T02:31:59.164Z,3.44
2022-11-07T02:32:59.165Z,3.33
2022-11-07T02:33:59.167Z,3.56
2022-11-07T02:34:59.178Z,3.56
2022-11-07T02:35:59.162Z,3.56
2022-11-07T02:36:59.170Z,3.33
2022-11-07T02:37:59.180Z,3.44
2022-11-07T02:38:59.166Z,3.56
2022-11-07T02:39:59.170Z,3.72
2022-11-07T02:40:59.168Z,3.44
2022-11-07T02:41:59.174Z,3.56
2022-11-07T02:42:59.170Z,3.44
2022-11-07T02:43:59.337Z,3.44
2022-11-07T02:44:59.169Z,3.44
2022-11-07T02:45:59.177Z,3.72
2022-11-07T02:46:59.185Z,3.72
2022-11-07T02:47:59.176Z,3.56
2022-11-07T02:48:59.172Z,3.56
2022-11-07T02:49:59.181Z,3.56
2022-11-07T02:50:59.177Z,3.44
2022-11-07T02:51:59.173Z,3.33
2022-11-07T02:52:59.176Z,3.44
2022-11-07T02:53:59.173Z,3.44
2022-11-07T02:54:59.184Z,3.44
2022-11-07T02:55:59.174Z,3.44
2022-11-07T02:56:59.172Z,3.44
2022-11-07T02:57:59.173Z,3.44
2022-11-07T02:58:59.177Z,3.33
2022-11-07T02:59:59.202Z,3.17
2022-11-07T03:00:59.175Z,3.44
2022-11-07T03:01:59.301Z,3.33
2022-11-07T03:02:59.254Z,3.72
2022-11-07T03:03:59.181Z,3.44
2022-11-07T03:04:59.175Z,3.83
2022-11-07T03:05:59.178Z,3.44
2022-11-07T03:06:59.183Z,3.72
2022-11-07T03:07:59.194Z,3.56
2022-11-07T03:08:59.187Z,3.44
2022-11-07T03:09:59.199Z,3.33
2022-11-07T03:10:59.184Z,3.56
2022-11-07T03:11:59.196Z,3.44
2022-11-07T03:12:59.191Z,3.33
2022-11-07T03:13:59.191Z,3.44
2022-11-07T03:14:59.278Z,2.72
2022-11-07T03:15:59.361Z,3.11
2022-11-07T03:16:59.198Z,3
2022-11-07T03:17:59.202Z,2.89
2022-11-07T03:18:59.197Z,3
2022-11-07T03:19:59.192Z,3.39
2022-11-07T03:20:59.208Z,3.44
2022-11-07T03:21:59.201Z,3.33
2022-11-07T03:22:59.208Z,3.5
2022-11-07T03:23:59.200Z,3.44
2022-11-07T03:24:59.207Z,3.44
2022-11-07T03:25:59.196Z,3.44
2022-11-07T03:26:59.208Z,3.56
2022-11-07T03:27:59.213Z,3.44
2022-11-07T03:28:59.204Z,3
2022-11-07T03:29:59.212Z,3
2022-11-07T03:30:59.206Z,3
2022-11-07T03:31:59.236Z,3.17
2022-11-07T03:32:59.211Z,3.17
2022-11-07T03:33:59.209Z,2.94
2022-11-07T03:34:59.213Z,3.33
2022-11-07T03:35:59.213Z,2.89
2022-11-07T03:36:59.212Z,3
2022-11-07T03:37:59.211Z,2.61
2022-11-07T03:38:59.225Z,2.72
2022-11-07T03:39:59.215Z,2.61
2022-11-07T03:40:59.222Z,2.72
2022-11-07T03:41:59.219Z,2.17
2022-11-07T03:42:59.216Z,2.44
2022-11-07T03:43:59.227Z,2.06
2022-11-07T03:44:59.221Z,2.17
2022-11-07T03:45:59.233Z,2.61
2022-11-07T03:46:59.228Z,2.89
2022-11-07T03:47:59.258Z,3.11
2022-11-07T03:48:59.243Z,3.11
2022-11-07T03:49:59.229Z,3
2022-11-07T03:50:59.241Z,2.89
2022-11-07T03:51:59.254Z,2.67
2022-11-07T03:52:59.235Z,2.61
2022-11-07T03:53:59.249Z,2.61
2022-11-07T03:54:59.247Z,2.61
2022-11-07T03:55:59.251Z,2.67
2022-11-07T03:56:59.250Z,2.61
2022-11-07T03:57:59.255Z,2.61
2022-11-07T03:58:59.255Z,3
2022-11-07T03:59:59.255Z,2.72
2022-11-07T04:00:59.266Z,3
2022-11-07T04:01:59.366Z,2.89
2022-11-07T04:02:59.335Z,2.89
2022-11-07T04:03:59.281Z,2.61
2022-11-07T04:04:59.258Z,2.72
2022-11-07T04:05:59.263Z,2.89
2022-11-07T04:06:59.267Z,3
2022-11-07T04:07:59.260Z,2.44
2022-11-07T04:08:59.266Z,2.72
2022-11-07T04:09:59.269Z,2.89
2022-11-07T04:10:59.261Z,2.72
2022-11-07T04:11:59.267Z,2.72
2022-11-07T04:12:59.270Z,2.61
2022-11-07T04:13:59.281Z,2.67
2022-11-07T04:14:59.273Z,2.61
2022-11-07T04:15:59.279Z,2.61
2022-11-07T04:16:59.274Z,2.17
2022-11-07T04:17:59.278Z,2.17
2022-11-07T04:18:59.282Z,2.33
2022-11-07T04:19:59.299Z,2.17
2022-11-07T04:20:59.282Z,2.39
2022-11-07T04:21:59.282Z,2.17
2022-11-07T04:22:59.293Z,2.28
2022-11-07T04:23:59.287Z,2.11
2022-11-07T04:24:59.297Z,2
2022-11-07T04:25:59.293Z,1.94
2022-11-07T04:26:59.288Z,2.17
2022-11-07T04:27:59.293Z,2
2022-11-07T04:28:59.299Z,2.17
2022-11-07T04:29:59.298Z,2
2022-11-07T04:30:59.298Z,2
2022-11-07T04:31:59.297Z,2.17
2022-11-07T04:32:59.297Z,2.17
2022-11-07T04:33:59.300Z,2.44
2022-11-07T04:34:59.305Z,2.22
2022-11-07T04:35:59.326Z,1.89
2022-11-07T04:36:59.308Z,2.28
2022-11-07T04:37:59.328Z,2
2022-11-07T04:38:59.300Z,2
2022-11-07T04:39:59.313Z,2.56
2022-11-07T04:40:59.321Z,2
2022-11-07T04:41:59.309Z,2.44
2022-11-07T04:42:59.324Z,2.44
2022-11-07T04:43:59.322Z,2.28
2022-11-07T04:44:59.330Z,2
2022-11-07T04:45:59.309Z,2
2022-11-07T04:46:59.330Z,2.44
2022-11-07T04:47:59.328Z,2
2022-11-07T04:48:59.325Z,2.11
2022-11-07T04:49:59.328Z,2.17
2022-11-07T04:50:59.334Z,1.72
2022-11-07T04:51:59.360Z,1.89
2022-11-07T04:52:59.326Z,2.17
2022-11-07T04:53:59.330Z,2
2022-11-07T04:54:59.335Z,2.17
2022-11-07T04:55:59.333Z,1.89
2022-11-07T04:56:59.342Z,1.89
2022-11-07T04:57:59.342Z,2
2022-11-07T04:58:59.330Z,1.33
2022-11-07T04:59:59.343Z,1.72
2022-11-07T05:00:59.352Z,1.67
2022-11-07T05:01:59.447Z,1.5
2022-11-07T05:02:59.383Z,1.61
2022-11-07T05:03:59.343Z,1.5
2022-11-07T05:04:59.349Z,1.33
2022-11-07T05:05:59.348Z,1.11
2022-11-07T05:06:59.362Z,1.17
2022-11-07T05:07:59.462Z,1.17
2022-11-07T05:08:59.340Z,1.17
2022-11-07T05:09:59.350Z,1.33
2022-11-07T05:10:59.347Z,1.06
2022-11-07T05:11:59.352Z,1.61
2022-11-07T05:12:59.354Z,1.33
2022-11-07T05:13:59.356Z,1.33
2022-11-07T05:14:59.352Z,1.83
2022-11-07T05:15:59.362Z,1.72
2022-11-07T05:16:59.357Z,1.61
2022-11-07T05:17:59.367Z,1.33
2022-11-07T05:18:59.355Z,1.33
2022-11-07T05:19:59.361Z,1.5
2022-11-07T05:20:59.364Z,1.5
2022-11-07T05:21:59.364Z,1.61
2022-11-07T05:22:59.359Z,1.61
2022-11-07T05:23:59.390Z,1.61
2022-11-07T05:24:59.366Z,1.72
2022-11-07T05:25:59.379Z,1.72
2022-11-07T05:26:59.372Z,1.33
2022-11-07T05:27:59.378Z,1.5
2022-11-07T05:28:59.373Z,1.33
2022-11-07T05:29:59.376Z,1.61
2022-11-07T05:30:59.380Z,1.72
2022-11-07T05:31:59.385Z,1.72
2022-11-07T05:32:59.387Z,1.61
2022-11-07T05:33:59.382Z,1.5
2022-11-07T05:34:59.376Z,1.61
2022-11-07T05:35:59.387Z,1.5
2022-11-07T05:36:59.382Z,1.5
2022-11-07T05:37:59.391Z,1.5
2022-11-07T05:38:59.386Z,1.33
2022-11-07T05:39:59.507Z,1.33
2022-11-07T05:40:59.384Z,1.17
2022-11-07T05:41:59.387Z,1.06
2022-11-07T05:42:59.387Z,0.67
2022-11-07T05:43:59.386Z,0.89
2022-11-07T05:44:59.393Z,0.61
2022-11-07T05:45:59.386Z,0.89
2022-11-07T05:46:59.395Z,0.72
2022-11-07T05:47:59.404Z,0.28
2022-11-07T05:49:01.033Z,0.89
2022-11-07T05:49:59.400Z,0.94
2022-11-07T05:50:59.396Z,0.61
2022-11-07T05:51:59.404Z,0.44
2022-11-07T05:52:59.470Z,0.17
2022-11-07T05:53:59.407Z,0.61
2022-11-07T05:54:59.409Z,0.89
2022-11-07T05:55:59.438Z,0.61
2022-11-07T05:56:59.429Z,0.89
2022-11-07T05:58:04.232Z,1.17
2022-11-07T05:58:59.409Z,1.33
2022-11-07T05:59:59.410Z,1.33
2022-11-07T06:00:59.408Z,1.33
2022-11-07T06:01:59.517Z,1.17
2022-11-07T06:02:59.494Z,1.33
2022-11-07T06:03:59.416Z,1.5
2022-11-07T06:04:59.412Z,1.33
2022-11-07T06:05:59.418Z,1.33
2022-11-07T06:06:59.422Z,1.5
2022-11-07T06:07:59.414Z,1.33
2022-11-07T06:08:59.417Z,1.06
2022-11-07T06:09:59.419Z,0.72
2022-11-07T06:10:59.421Z,1.17
2022-11-07T06:11:59.440Z,1.33
2022-11-07T06:12:59.416Z,1.06
2022-11-07T06:13:59.433Z,1.33
2022-11-07T06:14:59.423Z,0.89
2022-11-07T06:15:59.430Z,1.06
2022-11-07T06:16:59.424Z,1.17
2022-11-07T06:17:59.426Z,1.17
2022-11-07T06:18:59.422Z,0.89
2022-11-07T06:19:59.424Z,1.17
2022-11-07T06:20:59.425Z,0.89
2022-11-07T06:21:59.426Z,0.89
2022-11-07T06:22:59.426Z,1.06
2022-11-07T06:23:59.434Z,0.89
2022-11-07T06:24:59.435Z,0.89
2022-11-07T06:25:59.438Z,0.89
2022-11-07T06:26:59.433Z,1.06
2022-11-07T06:27:59.468Z,0.89
2022-11-07T06:28:59.435Z,1.06
2022-11-07T06:29:59.430Z,0.89
2022-11-07T06:30:59.439Z,1.17
2022-11-07T06:31:59.451Z,1.33
2022-11-07T06:32:59.444Z,1.06
2022-11-07T06:33:59.443Z,1.5
2022-11-07T06:34:59.447Z,1.33
2022-11-07T06:35:59.446Z,1.33
2022-11-07T06:37:03.049Z,1.72
2022-11-07T06:37:59.449Z,1.61
2022-11-07T06:38:59.447Z,1.72
2022-11-07T06:39:59.449Z,1.61
2022-11-07T06:40:59.452Z,1.61
2022-11-07T06:41:59.448Z,1.61
2022-11-07T06:42:59.440Z,2
2022-11-07T06:43:59.468Z,1.72
2022-11-07T06:44:59.447Z,1.89
2022-11-07T06:45:59.448Z,1.89
2022-11-07T06:46:59.453Z,1.72
2022-11-07T06:47:59.455Z,2
2022-11-07T06:48:59.448Z,2
2022-11-07T06:49:59.451Z,2.17
2022-11-07T06:50:59.451Z,2.17
2022-11-07T06:51:59.453Z,2.17
2022-11-07T06:52:59.455Z,2.17
2022-11-07T06:53:59.458Z,2.28
2022-11-07T06:54:59.479Z,2.61
2022-11-07T06:55:59.465Z,2.17
2022-11-07T06:56:59.455Z,2.61
2022-11-07T06:57:59.465Z,2.61
2022-11-07T06:58:59.467Z,2.44
2022-11-07T06:59:59.617Z,2.72
2022-11-07T07:00:59.521Z,2.72
2022-11-07T07:01:59.533Z,2.89
2022-11-07T07:02:59.650Z,3.44
2022-11-07T07:03:59.469Z,3
2022-11-07T07:04:59.477Z,3
2022-11-07T07:05:59.467Z,3.17
2022-11-07T07:06:59.472Z,3.17
2022-11-07T07:07:59.472Z,3.33
2022-11-07T07:08:59.471Z,3.17
2022-11-07T07:09:59.497Z,3.17
2022-11-07T07:10:59.471Z,3.33
2022-11-07T07:11:59.476Z,3.33
2022-11-07T07:12:59.469Z,3.44
2022-11-07T07:14:02.089Z,3.44
2022-11-07T07:14:59.472Z,3.33
2022-11-07T07:15:59.589Z,3.44
2022-11-07T07:16:59.477Z,3.44
2022-11-07T07:17:59.482Z,3.44
2022-11-07T07:18:59.481Z,3.44
2022-11-07T07:19:59.494Z,3.44
2022-11-07T07:20:59.484Z,3.44
2022-11-07T07:21:59.481Z,3.56
2022-11-07T07:23:04.541Z,3.44
2022-11-07T07:23:59.485Z,3.33
2022-11-07T07:24:59.479Z,3.44
2022-11-07T07:25:59.484Z,3.33
2022-11-07T07:26:59.477Z,3.44
2022-11-07T07:27:59.475Z,3.33
2022-11-07T07:28:59.475Z,3.17
2022-11-07T07:29:59.495Z,3.44
2022-11-07T07:30:59.478Z,3.56
2022-11-07T07:31:59.608Z,3.44
2022-11-07T07:32:59.487Z,3.72
2022-11-07T07:33:59.475Z,3.56
2022-11-07T07:34:59.478Z,3.72
2022-11-07T07:35:59.485Z,3.17
2022-11-07T07:36:59.482Z,3.44
2022-11-07T07:37:59.478Z,3.56
2022-11-07T07:38:59.480Z,3.33
2022-11-07T07:39:59.486Z,3.83
2022-11-07T07:40:59.478Z,3.83
2022-11-07T07:41:59.485Z,3.56
2022-11-07T07:42:59.483Z,3.72
2022-11-07T07:43:59.490Z,3.56
2022-11-07T07:44:59.491Z,3.44
2022-11-07T07:45:59.510Z,3.17
2022-11-07T07:46:59.488Z,3.44
2022-11-07T07:47:59.604Z,3.33
2022-11-07T07:48:59.485Z,3.17
2022-11-07T07:49:59.492Z,3.33
2022-11-07T07:50:59.496Z,3.44
2022-11-07T07:51:59.482Z,3
2022-11-07T07:53:00.750Z,3
2022-11-07T07:53:59.498Z,3.33
2022-11-07T07:54:59.489Z,3.17
2022-11-07T07:55:59.536Z,3.17
2022-11-07T07:56:59.501Z,3.44
2022-11-07T07:57:59.489Z,3.44
2022-11-07T07:58:59.490Z,3.44
2022-11-07T07:59:59.493Z,3.17
2022-11-07T08:00:59.627Z,3.44
2022-11-07T08:01:59.595Z,3.56
2022-11-07T08:02:59.502Z,3.33
2022-11-07T08:04:01.651Z,3.44
2022-11-07T08:04:59.504Z,3.33
2022-11-07T08:05:59.503Z,3.72
2022-11-07T08:06:59.499Z,3.83
2022-11-07T08:07:59.506Z,3.56
2022-11-07T08:08:59.509Z,4
2022-11-07T08:10:05.510Z,4
2022-11-07T08:10:59.503Z,3.83
2022-11-07T08:11:59.515Z,4
2022-11-07T08:12:59.515Z,3.72
2022-11-07T08:14:01.425Z,4
2022-11-07T08:14:59.509Z,3.56
2022-11-07T08:15:59.524Z,3.83
2022-11-07T08:16:59.517Z,3.72
2022-11-07T08:17:59.517Z,3.83
2022-11-07T08:18:59.522Z,3.83
2022-11-07T08:19:59.638Z,3.72
2022-11-07T08:20:59.521Z,3.72
2022-11-07T08:21:59.525Z,4
2022-11-07T08:22:59.531Z,4
2022-11-07T08:23:59.533Z,4
2022-11-07T08:24:59.527Z,4.17
2022-11-07T08:25:59.529Z,4.17
2022-11-07T08:26:59.543Z,4.28
2022-11-07T08:27:59.533Z,3.72
2022-11-07T08:28:59.543Z,4.17
2022-11-07T08:29:59.547Z,4.17
2022-11-07T08:30:59.547Z,3.83
2022-11-07T08:31:59.546Z,4.17
2022-11-07T08:32:59.547Z,4.17
2022-11-07T08:33:59.612Z,4
2022-11-07T08:34:59.543Z,4.17
2022-11-07T08:35:59.571Z,4.28
2022-11-07T08:36:59.567Z,4.17
2022-11-07T08:37:59.548Z,4.28
2022-11-07T08:38:59.564Z,4.28
2022-11-07T08:39:59.554Z,4.44
2022-11-07T08:40:59.564Z,3.83
2022-11-07T08:41:59.564Z,3.83
2022-11-07T08:42:59.565Z,3.72
2022-11-07T08:43:59.561Z,4.28
2022-11-07T08:44:59.564Z,4.72
2022-11-07T08:45:59.564Z,4.72
2022-11-07T08:47:02.140Z,4.72
2022-11-07T08:47:59.578Z,4.56
2022-11-07T08:48:59.572Z,4.56
2022-11-07T08:49:59.614Z,4.56
2022-11-07T08:50:59.582Z,4.72
2022-11-07T08:51:59.596Z,4.72
2022-11-07T08:53:02.625Z,4.72
2022-11-07T08:53:59.584Z,4.44
2022-11-07T08:54:59.590Z,4.56
2022-11-07T08:55:59.587Z,4.44
2022-11-07T08:56:59.592Z,4.28
2022-11-07T08:57:59.605Z,4.56
2022-11-07T08:58:59.592Z,4.56
2022-11-07T08:59:59.598Z,4.72
2022-11-07T09:00:59.622Z,5
2022-11-07T09:03:59.733Z,4.89
2022-11-07T09:04:59.607Z,4.72
2022-11-07T09:05:59.604Z,4.72
2022-11-07T09:06:59.598Z,5
2022-11-07T09:07:59.632Z,4.89
2022-11-07T09:08:59.611Z,5.17
2022-11-07T09:09:59.620Z,5.33
2022-11-07T09:10:59.614Z,5.17
2022-11-07T09:11:59.619Z,5
2022-11-07T09:12:59.616Z,5.44
2022-11-07T09:13:59.622Z,5.61
2022-11-07T09:14:59.629Z,5.61
2022-11-07T09:15:59.615Z,4.89
2022-11-07T09:16:59.631Z,5.17
2022-11-07T09:17:59.619Z,5.33
2022-11-07T09:18:59.625Z,5.61
2022-11-07T09:19:59.625Z,5.5
2022-11-07T09:20:59.639Z,5.61
2022-11-07T09:21:59.619Z,5.61
2022-11-07T09:22:59.625Z,5.44
2022-11-07T09:23:59.646Z,5.72
2022-11-07T09:24:59.622Z,5.72
2022-11-07T09:25:59.623Z,5.44
2022-11-07T09:26:59.627Z,5.44
2022-11-07T09:27:59.623Z,5.33
2022-11-07T09:29:01.208Z,5.17
2022-11-07T09:29:59.626Z,5
2022-11-07T09:30:59.638Z,5.33
2022-11-07T09:32:08.218Z,5.33
2022-11-07T09:32:59.634Z,6
2022-11-07T09:33:59.625Z,6
2022-11-07T09:35:04.610Z,6.28
2022-11-07T09:35:59.627Z,6
2022-11-07T09:36:59.624Z,6
2022-11-07T09:37:59.628Z,5.89
2022-11-07T09:38:59.625Z,5.61
2022-11-07T09:39:59.650Z,5.44
2022-11-07T09:40:59.629Z,5.61
2022-11-07T09:41:59.628Z,5.67
2022-11-07T09:42:59.625Z,5.67
2022-11-07T09:43:59.623Z,5.83
2022-11-07T09:44:59.631Z,6.28
2022-11-07T09:45:59.622Z,6
2022-11-07T09:46:59.624Z,6.06
2022-11-07T09:47:59.626Z,5.94
2022-11-07T09:48:59.625Z,5.56
2022-11-07T09:49:59.626Z,5.94
2022-11-07T09:50:59.620Z,5.94
2022-11-07T09:51:59.636Z,6.22
2022-11-07T09:52:59.625Z,6.06
2022-11-07T09:53:59.625Z,5.78
2022-11-07T09:54:59.623Z,5.56
2022-11-07T09:55:59.688Z,5.56
2022-11-07T09:56:59.634Z,5.39
2022-11-07T09:57:59.626Z,6.06
2022-11-07T09:58:59.627Z,5.78
2022-11-07T09:59:59.637Z,6.22
2022-11-07T10:00:59.654Z,6.39
2022-11-07T10:01:59.657Z,5.94
2022-11-07T10:02:59.628Z,6.06
2022-11-07T10:04:59.649Z,6.67
2022-11-07T10:05:59.632Z,7.22
2022-11-07T10:06:59.632Z,7.5
2022-11-07T10:07:59.629Z,6.94
2022-11-07T10:08:59.635Z,6.67
2022-11-07T10:09:59.633Z,6.67
2022-11-07T10:10:59.620Z,6.67
2022-11-07T10:11:59.651Z,6.39
2022-11-07T10:12:59.649Z,6.67
2022-11-07T10:13:59.633Z,6.67
2022-11-07T10:14:59.633Z,6.39
2022-11-07T10:15:59.624Z,6.39
2022-11-07T10:16:59.643Z,6.67
2022-11-07T10:17:59.636Z,6.78
2022-11-07T10:18:59.636Z,6.67
2022-11-07T10:19:59.634Z,6.67
2022-11-07T10:21:16.424Z,6.22
2022-11-07T10:21:59.636Z,5.78
2022-11-07T10:22:59.637Z,6.39
2022-11-07T10:23:59.629Z,7.11
2022-11-07T10:24:59.633Z,7.94
2022-11-07T10:25:59.638Z,8.39
2022-11-07T10:26:59.637Z,8.61
2022-11-07T10:27:59.653Z,8.78
2022-11-07T10:28:59.634Z,8.78
2022-11-07T10:29:59.634Z,8.78
2022-11-07T10:30:59.633Z,8.94
2022-11-07T10:31:59.633Z,9.22
2022-11-07T10:32:59.639Z,8.78
2022-11-07T10:33:59.628Z,8.61
2022-11-07T10:34:59.628Z,9.22
2022-11-07T10:35:59.631Z,9.06
2022-11-07T10:36:59.640Z,8.39
2022-11-07T10:37:59.632Z,8.28
2022-11-07T10:38:59.644Z,8.39
2022-11-07T10:39:59.636Z,8.78
2022-11-07T10:40:59.634Z,8.78
2022-11-07T10:41:59.635Z,8.61
2022-11-07T10:42:59.637Z,9.06
2022-11-07T10:43:59.776Z,8.78
2022-11-07T10:44:59.647Z,8.39
2022-11-07T10:45:59.660Z,7.67
2022-11-07T10:46:59.634Z,7.22
2022-11-07T10:47:59.638Z,7.5
2022-11-07T10:48:59.653Z,7.94
2022-11-07T10:49:59.635Z,7.94
2022-11-07T10:50:59.638Z,7.94
2022-11-07T10:51:59.636Z,8.11
2022-11-07T10:52:59.634Z,7.94
2022-11-07T10:53:59.637Z,7.78
2022-11-07T10:54:59.638Z,7.78
2022-11-07T10:55:59.631Z,7.5
2022-11-07T10:56:59.640Z,7.94
2022-11-07T10:57:59.664Z,7.94
2022-11-07T10:58:59.632Z,8.39
2022-11-07T10:59:59.672Z,8.28
2022-11-07T11:00:59.677Z,7.78
2022-11-07T11:01:59.660Z,8.11
2022-11-07T11:02:59.641Z,8.39
2022-11-07T11:03:59.650Z,8.78
2022-11-07T11:04:59.647Z,8.78
2022-11-07T11:05:59.639Z,8.11
2022-11-07T11:06:59.639Z,9.06
2022-11-07T11:07:59.640Z,9.06
2022-11-07T11:08:59.636Z,8.94
2022-11-07T11:09:59.639Z,9.39
2022-11-07T11:10:59.639Z,9.22
2022-11-07T11:11:59.642Z,9.67
2022-11-07T11:12:59.633Z,9.5
2022-11-07T11:13:59.643Z,9.78
2022-11-07T11:14:59.641Z,9.78
2022-11-07T11:16:04.371Z,9.94
2022-11-07T11:16:59.668Z,9.67
2022-11-07T11:17:59.641Z,9.67
2022-11-07T11:18:59.644Z,9.78
2022-11-07T11:19:59.645Z,9.67
2022-11-07T11:20:59.644Z,9.67
2022-11-07T11:21:59.637Z,9.5
2022-11-07T11:22:59.647Z,9.39
2022-11-07T11:23:59.641Z,9.39
2022-11-07T11:24:59.640Z,9.78
2022-11-07T11:25:59.638Z,10.11
2022-11-07T11:26:59.643Z,9.94
2022-11-07T11:27:59.642Z,10.11
2022-11-07T11:28:59.651Z,9.78
2022-11-07T11:29:59.641Z,9.5
2022-11-07T11:30:59.644Z,9.67
2022-11-07T11:31:59.660Z,9.67
2022-11-07T11:32:59.639Z,9.06
2022-11-07T11:33:59.646Z,9.94
2022-11-07T11:34:59.643Z,9.78
2022-11-07T11:35:59.640Z,9.67
2022-11-07T11:36:59.642Z,9.94
2022-11-07T11:37:59.652Z,10.22
2022-11-07T11:38:59.643Z,10.56
2022-11-07T11:39:59.636Z,10.11
2022-11-07T11:41:04.931Z,10.56
2022-11-07T11:41:59.649Z,10.56
2022-11-07T11:42:59.648Z,10.11
2022-11-07T11:43:59.652Z,9.78
2022-11-07T11:44:59.645Z,9.67
2022-11-07T11:45:59.642Z,9.5
2022-11-07T11:46:59.650Z,9.5
2022-11-07T11:47:59.673Z,9.5
2022-11-07T11:48:59.641Z,9.67
2022-11-07T11:49:59.646Z,9.67
2022-11-07T11:50:59.643Z,9.67
2022-11-07T11:51:59.644Z,9.67
2022-11-07T11:52:59.646Z,9.67
2022-11-07T11:53:59.646Z,9.78
2022-11-07T11:54:59.647Z,10.11
2022-11-07T11:55:59.644Z,10.67
2022-11-07T11:56:59.655Z,11.11
2022-11-07T11:57:59.639Z,11.28
2022-11-07T11:58:59.654Z,10.56
2022-11-07T11:59:59.641Z,10.83
2022-11-07T12:00:59.666Z,11.11
2022-11-07T12:01:59.706Z,11.44
2022-11-07T12:02:59.650Z,10.83
2022-11-07T12:04:02.373Z,11.11
2022-11-07T12:04:59.640Z,11.44
2022-11-07T12:05:59.644Z,10.83
2022-11-07T12:06:59.644Z,11.94
2022-11-07T12:07:59.638Z,11.83
2022-11-07T12:08:59.640Z,11.83
2022-11-07T12:09:59.651Z,11.83
2022-11-07T12:10:59.646Z,11.83
2022-11-07T12:11:59.658Z,11.61
2022-11-07T12:12:59.645Z,11.11
2022-11-07T12:13:59.641Z,11.5
2022-11-07T12:14:59.639Z,11.28
2022-11-07T12:15:59.644Z,11.44
2022-11-07T12:16:59.650Z,11.61
2022-11-07T12:17:59.645Z,11.28
2022-11-07T12:18:59.649Z,11.72
2022-11-07T12:19:59.769Z,11
2022-11-07T12:20:59.642Z,10.56
2022-11-07T12:21:59.646Z,10.11
2022-11-07T12:22:59.646Z,10.67
2022-11-07T12:23:59.642Z,10.56
2022-11-07T12:24:59.651Z,10.56
2022-11-07T12:25:59.646Z,10.56
2022-11-07T12:26:59.649Z,11
2022-11-07T12:27:59.650Z,10.56
2022-11-07T12:28:59.650Z,10.39
2022-11-07T12:29:59.652Z,11.11
2022-11-07T12:30:59.643Z,11.28
2022-11-07T12:31:59.651Z,11.28
2022-11-07T12:32:59.642Z,11.44
2022-11-07T12:33:59.650Z,11
2022-11-07T12:34:59.647Z,10.72
2022-11-07T12:35:59.669Z,10.83
2022-11-07T12:36:59.650Z,10.94
2022-11-07T12:37:59.649Z,11.06
2022-11-07T12:38:59.650Z,11.17
2022-11-07T12:39:59.650Z,11.17
2022-11-07T12:40:59.662Z,11.33
2022-11-07T12:41:59.650Z,11.61
2022-11-07T12:43:00.103Z,11.06
2022-11-07T12:43:59.650Z,10.89
2022-11-07T12:44:59.653Z,10.33
2022-11-07T12:45:59.647Z,10.33
2022-11-07T12:46:59.648Z,10.33
2022-11-07T12:47:59.657Z,10.44
2022-11-07T12:48:59.650Z,10.72
2022-11-07T12:49:59.662Z,10.61
2022-11-07T12:50:59.652Z,10
2022-11-07T12:51:59.670Z,10.33
2022-11-07T12:52:59.648Z,10.33
2022-11-07T12:53:59.656Z,10.44
2022-11-07T12:54:59.653Z,10.33
2022-11-07T12:55:59.653Z,10
2022-11-07T12:56:59.650Z,10.44
2022-11-07T12:57:59.665Z,10.17
2022-11-07T12:58:59.657Z,10.33
2022-11-07T12:59:59.652Z,10.33
2022-11-07T13:00:59.689Z,10.33
2022-11-07T13:01:59.831Z,10.33
2022-11-07T13:02:59.656Z,10.61
2022-11-07T13:03:59.647Z,11.17
2022-11-07T13:04:59.665Z,11.17
2022-11-07T13:05:59.667Z,11.33
2022-11-07T13:06:59.673Z,11.78
2022-11-07T13:07:59.696Z,11.89
2022-11-07T13:08:59.662Z,11.89
2022-11-07T13:09:59.664Z,11.5
2022-11-07T13:10:59.649Z,11.89
2022-11-07T13:11:59.652Z,11.61
2022-11-07T13:12:59.657Z,11.33
2022-11-07T13:13:59.664Z,11.5
2022-11-07T13:14:59.656Z,11.61
2022-11-07T13:16:14.928Z,11.5
2022-11-07T13:16:59.655Z,11.61
2022-11-07T13:17:59.653Z,11.61
2022-11-07T13:18:59.658Z,11.17
2022-11-07T13:19:59.648Z,10.72
2022-11-07T13:20:59.647Z,10.89
2022-11-07T13:21:59.657Z,10.44
2022-11-07T13:22:59.661Z,10.44
2022-11-07T13:23:59.687Z,10
2022-11-07T13:25:04.508Z,10.17
2022-11-07T13:25:59.687Z,9.56
2022-11-07T13:26:59.659Z,10
2022-11-07T13:27:59.661Z,10.33